Terminal Aerodrome Forecast
Issued by NWS

Home | Current Version | Previous Version | Graphics & Text | Print | Product List | Glossary On
Versions: 1 2 3 4 5 6 7 8 9 10 11 12 13
000
FTUS43 KIWX 251648 AAA
TAFSBN
TAF AMD
KSBN 251648Z 2517/2612 29016G24KT 6SM -SHSN BKN025
     FM252000 29015G22KT P6SM VCSH OVC040
     FM260400 28010KT P6SM BKN035=

USA.gov is the U.S. government's official web portal to all federal, state and local government web resources and services.